createdAt,value
2019-03-24T00:01:25.167Z,99.90
2019-03-24T00:03:56.476Z,99.90
2019-03-24T00:06:27.806Z,99.90
2019-03-24T00:08:59.492Z,99.90
2019-03-24T00:11:30.823Z,99.90
2019-03-24T00:14:02.123Z,99.90
2019-03-24T00:16:33.486Z,99.90
2019-03-24T00:19:04.847Z,99.90
2019-03-24T00:21:36.737Z,99.90
2019-03-24T00:24:08.031Z,99.90
2019-03-24T00:26:39.303Z,99.90
2019-03-24T00:29:10.927Z,99.90
2019-03-24T00:31:42.192Z,99.90
2019-03-24T00:34:13.624Z,99.90
2019-03-24T00:36:44.895Z,99.90
2019-03-24T00:39:16.534Z,99.90
2019-03-24T00:41:47.792Z,99.90
2019-03-24T00:44:19.222Z,99.90
2019-03-24T00:46:50.604Z,99.90
2019-03-24T00:49:21.885Z,99.90
2019-03-24T00:51:53.156Z,99.90
2019-03-24T00:54:24.478Z,99.90
2019-03-24T00:56:55.769Z,99.90
2019-03-24T00:59:27.054Z,99.90
2019-03-24T01:01:58.359Z,99.90
2019-03-24T01:04:29.965Z,99.90
2019-03-24T01:07:01.245Z,99.90
2019-03-24T01:09:33.217Z,99.90
2019-03-24T01:12:04.686Z,99.90
2019-03-24T01:14:35.986Z,99.90
2019-03-24T01:17:07.513Z,99.90
2019-03-24T01:19:38.802Z,99.90
2019-03-24T01:22:10.067Z,99.90
2019-03-24T01:24:41.710Z,99.90
2019-03-24T01:27:14.205Z,99.90
2019-03-24T01:29:45.504Z,99.90
2019-03-24T01:32:16.775Z,99.90
2019-03-24T01:34:48.334Z,99.90
2019-03-24T01:37:19.656Z,99.90
2019-03-24T01:39:51.211Z,99.90
2019-03-24T01:42:22.801Z,99.90
2019-03-24T01:44:54.145Z,99.90
2019-03-24T01:47:25.448Z,99.90
2019-03-24T01:49:56.711Z,99.90
2019-03-24T01:52:28.577Z,99.90
2019-03-24T01:54:59.934Z,99.90
2019-03-24T01:57:31.247Z,99.90
2019-03-24T02:00:02.708Z,99.90
2019-03-24T02:02:35.101Z,99.90
2019-03-24T02:05:06.544Z,99.90
2019-03-24T02:07:37.811Z,99.90
2019-03-24T02:10:09.886Z,99.90
2019-03-24T02:12:41.175Z,99.90
2019-03-24T02:15:12.973Z,99.90
2019-03-24T02:17:44.278Z,99.90
2019-03-24T02:20:15.783Z,99.90
2019-03-24T02:22:47.191Z,99.90
2019-03-24T02:25:18.809Z,99.90
2019-03-24T02:27:50.094Z,99.90
2019-03-24T02:30:21.704Z,99.90
2019-03-24T02:32:53.025Z,99.90
2019-03-24T02:35:24.361Z,99.90
2019-03-24T02:37:55.668Z,99.90
2019-03-24T02:40:26.903Z,99.90
2019-03-24T02:42:58.164Z,99.90
2019-03-24T02:45:29.525Z,99.90
2019-03-24T02:48:01.040Z,99.90
2019-03-24T02:50:32.362Z,99.90
2019-03-24T02:53:03.755Z,99.90
2019-03-24T02:55:35.457Z,99.90
2019-03-24T02:58:07.145Z,99.90
2019-03-24T03:00:38.637Z,99.90
2019-03-24T03:03:10.344Z,99.90
2019-03-24T03:05:43.047Z,99.90
2019-03-24T03:08:14.545Z,99.90
2019-03-24T03:10:45.880Z,99.90
2019-03-24T03:13:17.575Z,99.90
2019-03-24T03:15:48.923Z,99.90
2019-03-24T03:18:20.210Z,99.90
2019-03-24T03:20:51.499Z,99.90
2019-03-24T03:23:22.852Z,99.90
2019-03-24T03:25:54.256Z,99.90
2019-03-24T03:28:25.589Z,99.90
2019-03-24T03:30:56.830Z,99.90
2019-03-24T03:33:28.423Z,99.90
2019-03-24T03:35:59.759Z,99.90
2019-03-24T03:38:31.202Z,99.90
2019-03-24T03:41:02.641Z,99.90
2019-03-24T03:43:33.993Z,99.90
2019-03-24T03:46:05.751Z,99.90
2019-03-24T03:48:37.674Z,99.90
2019-03-24T03:51:08.972Z,99.90
2019-03-24T03:53:40.298Z,99.90
2019-03-24T03:56:11.555Z,99.90
2019-03-24T03:58:43.620Z,99.90
2019-03-24T04:01:15.919Z,99.90
2019-03-24T04:03:47.214Z,99.90
2019-03-24T04:06:18.508Z,99.90
2019-03-24T04:08:49.865Z,99.90
2019-03-24T04:11:21.118Z,99.90
2019-03-24T04:13:52.648Z,99.90
2019-03-24T04:16:23.951Z,99.90
2019-03-24T04:18:55.242Z,99.90
2019-03-24T04:21:26.500Z,99.90
2019-03-24T04:23:57.809Z,99.90
2019-03-24T04:26:29.072Z,99.90
2019-03-24T04:29:00.361Z,99.90
2019-03-24T04:31:31.652Z,99.90
2019-03-24T04:34:02.982Z,99.90
2019-03-24T04:36:34.243Z,99.90
2019-03-24T04:39:06.900Z,99.90
2019-03-24T04:41:38.233Z,99.90
2019-03-24T04:44:09.523Z,99.90
2019-03-24T04:46:40.787Z,99.90
2019-03-24T04:49:13.114Z,99.90
2019-03-24T04:51:44.370Z,99.90
2019-03-24T04:54:15.952Z,99.90
2019-03-24T04:56:48.298Z,99.90
2019-03-24T04:59:19.865Z,99.90
2019-03-24T05:01:51.113Z,99.90
2019-03-24T05:04:22.429Z,99.90
2019-03-24T05:06:54.241Z,99.90
2019-03-24T05:09:27.147Z,99.90
2019-03-24T05:11:58.455Z,99.90
2019-03-24T05:14:29.763Z,99.90
2019-03-24T05:17:01.033Z,99.90
2019-03-24T05:19:32.334Z,99.90
2019-03-24T05:22:03.585Z,99.90
2019-03-24T05:24:35.135Z,99.90
2019-03-24T05:27:06.513Z,99.90
2019-03-24T05:29:37.824Z,99.90
2019-03-24T05:32:09.095Z,99.90
2019-03-24T05:34:40.416Z,99.90
2019-03-24T05:37:11.966Z,99.90
2019-03-24T05:39:43.572Z,99.90
2019-03-24T05:42:15.284Z,99.90
2019-03-24T05:44:46.905Z,99.90
2019-03-24T05:47:18.246Z,99.90
2019-03-24T05:49:49.562Z,99.90
2019-03-24T05:52:20.826Z,99.90
2019-03-24T05:54:52.110Z,99.90
2019-03-24T05:57:23.719Z,99.90
2019-03-24T05:59:55.037Z,99.90
2019-03-24T06:02:26.307Z,99.90
2019-03-24T06:04:57.593Z,99.90
2019-03-24T06:07:28.836Z,99.90
2019-03-24T06:10:00.470Z,99.90
2019-03-24T06:12:32.088Z,99.90
2019-03-24T06:15:03.423Z,99.90
2019-03-24T06:17:34.680Z,99.90
2019-03-24T06:20:06.875Z,99.90
2019-03-24T06:22:38.217Z,99.90
2019-03-24T06:25:09.935Z,99.90
2019-03-24T06:27:41.161Z,99.90
2019-03-24T06:30:12.902Z,99.90
2019-03-24T06:32:44.185Z,99.90
2019-03-24T06:35:16.874Z,99.90
2019-03-24T06:37:48.137Z,99.90
2019-03-24T06:40:19.986Z,99.90
2019-03-24T06:42:51.770Z,99.90
2019-03-24T06:45:28.298Z,99.90
2019-03-24T06:47:58.129Z,99.90
2019-03-24T06:50:29.431Z,99.90
2019-03-24T06:53:00.675Z,99.90
2019-03-24T06:55:31.917Z,99.90
2019-03-24T06:58:03.210Z,99.90
2019-03-24T07:00:34.518Z,99.90
2019-03-24T07:03:05.805Z,99.90
2019-03-24T07:05:37.412Z,99.90
2019-03-24T07:08:09.637Z,99.90
2019-03-24T07:10:40.920Z,99.90
2019-03-24T07:13:12.257Z,99.90
2019-03-24T07:15:43.931Z,99.90
2019-03-24T07:18:15.450Z,99.90
2019-03-24T07:20:47.023Z,99.90
2019-03-24T07:23:18.637Z,99.90
2019-03-24T07:25:49.954Z,99.90
2019-03-24T07:28:21.274Z,99.90
2019-03-24T07:30:52.609Z,99.90
2019-03-24T07:33:24.254Z,99.90
2019-03-24T07:35:55.537Z,99.90
2019-03-24T07:38:26.801Z,99.90
2019-03-24T07:40:59.179Z,99.90
2019-03-24T07:43:30.467Z,99.90
2019-03-24T07:46:01.711Z,99.90
2019-03-24T07:48:32.986Z,99.90
2019-03-24T07:51:04.314Z,99.90
2019-03-24T07:53:35.564Z,99.90
2019-03-24T07:56:07.455Z,99.90
2019-03-24T07:58:38.776Z,99.90
2019-03-24T08:01:10.723Z,99.90
2019-03-24T08:03:41.995Z,99.90
2019-03-24T08:06:13.286Z,99.90
2019-03-24T08:08:44.674Z,99.90
2019-03-24T08:11:15.942Z,99.90
2019-03-24T08:13:53.789Z,99.90
2019-03-24T08:16:20.297Z,98.60
2019-03-24T08:18:51.952Z,97.90
2019-03-24T08:21:23.241Z,97.80
2019-03-24T08:23:54.553Z,96.00
2019-03-24T08:26:25.822Z,95.70
2019-03-24T08:28:57.106Z,94.10
2019-03-24T08:31:28.740Z,94.20
2019-03-24T08:34:00.171Z,91.90
2019-03-24T08:36:31.689Z,91.00
2019-03-24T08:39:03.892Z,90.90
2019-03-24T08:41:35.519Z,91.50
2019-03-24T08:44:07.023Z,91.50
2019-03-24T08:46:38.367Z,93.10
2019-03-24T08:49:28.629Z,93.50
2019-03-24T08:51:59.981Z,94.30
2019-03-24T08:54:32.351Z,94.60
2019-03-24T08:57:03.718Z,95.90
2019-03-24T08:59:35.414Z,95.90
2019-03-24T09:02:07.086Z,95.30
2019-03-24T09:04:38.398Z,95.60
2019-03-24T09:07:09.684Z,96.10
2019-03-24T09:09:41.040Z,95.60
2019-03-24T09:12:12.327Z,94.80
2019-03-24T09:14:43.593Z,95.20
2019-03-24T09:17:14.882Z,95.00
2019-03-24T09:19:46.143Z,94.00
2019-03-24T09:22:17.420Z,93.60
2019-03-24T09:24:50.924Z,91.60
2019-03-24T09:27:22.555Z,88.20
2019-03-24T09:29:53.837Z,90.10
2019-03-24T09:32:25.383Z,91.50
2019-03-24T09:34:56.753Z,90.40
2019-03-24T09:37:30.034Z,87.50
2019-03-24T09:40:02.523Z,80.50
2019-03-24T09:42:33.915Z,81.10
2019-03-24T09:45:05.444Z,79.60
2019-03-24T09:47:37.041Z,81.30
2019-03-24T09:50:08.538Z,80.00
2019-03-24T09:52:39.937Z,80.30
2019-03-24T09:55:11.395Z,80.70
2019-03-24T09:57:42.990Z,85.00
2019-03-24T10:00:14.811Z,88.20
2019-03-24T10:02:46.116Z,90.80
2019-03-24T10:05:17.433Z,90.30
2019-03-24T10:07:49.322Z,89.30
2019-03-24T10:10:20.978Z,82.60
2019-03-24T10:12:52.333Z,77.00
2019-03-24T10:15:23.727Z,75.20
2019-03-24T10:17:55.349Z,67.90
2019-03-24T10:20:27.005Z,63.20
2019-03-24T10:22:58.626Z,55.40
2019-03-24T10:25:30.419Z,52.60
2019-03-24T10:28:01.685Z,51.00
2019-03-24T10:30:32.947Z,51.20
2019-03-24T10:33:04.294Z,50.30
2019-03-24T10:35:36.737Z,52.10
2019-03-24T10:38:08.321Z,52.70
2019-03-24T10:40:40.173Z,56.40
2019-03-24T10:43:11.827Z,54.80
2019-03-24T10:45:43.143Z,53.70
2019-03-24T10:48:15.515Z,57.60
2019-03-24T10:50:48.134Z,57.90
2019-03-24T10:53:19.413Z,57.70
2019-03-24T10:55:50.761Z,65.80
2019-03-24T10:58:22.263Z,68.70
2019-03-24T11:00:53.929Z,68.00
2019-03-24T11:03:25.183Z,71.70
2019-03-24T11:05:56.465Z,71.00
2019-03-24T11:08:27.804Z,65.10
2019-03-24T11:10:59.093Z,61.10
2019-03-24T11:13:31.510Z,57.40
2019-03-24T11:16:02.795Z,54.10
2019-03-24T11:18:34.058Z,56.70
2019-03-24T11:21:05.691Z,54.70
2019-03-24T11:23:36.976Z,54.70
2019-03-24T11:26:08.309Z,54.20
2019-03-24T11:28:39.624Z,53.60
2019-03-24T11:31:10.961Z,54.00
2019-03-24T11:33:44.888Z,56.00
2019-03-24T11:36:16.266Z,56.80
2019-03-24T11:38:47.556Z,57.70
2019-03-24T11:41:18.891Z,53.10
2019-03-24T11:43:50.265Z,56.60
2019-03-24T11:46:21.524Z,57.10
2019-03-24T11:48:53.137Z,60.00
2019-03-24T11:51:24.455Z,61.80
2019-03-24T11:53:55.771Z,65.00
2019-03-24T11:56:27.077Z,68.80
2019-03-24T11:58:58.703Z,67.00
2019-03-24T12:01:41.390Z,63.20
2019-03-24T12:04:12.859Z,63.80
2019-03-24T12:06:44.194Z,61.60
2019-03-24T12:09:15.502Z,58.60
2019-03-24T12:11:46.793Z,56.60
2019-03-24T12:14:18.175Z,56.30
2019-03-24T12:16:49.485Z,57.20
2019-03-24T12:19:20.867Z,55.30
2019-03-24T12:21:52.181Z,55.70
2019-03-24T12:24:23.552Z,54.90
2019-03-24T12:26:54.843Z,52.30
2019-03-24T12:29:26.158Z,52.60
2019-03-24T12:31:57.485Z,50.90
2019-03-24T12:34:28.836Z,51.50
2019-03-24T12:37:00.114Z,49.20
2019-03-24T12:39:31.413Z,50.10
2019-03-24T12:42:02.818Z,49.20
2019-03-24T12:44:34.111Z,49.30
2019-03-24T12:47:05.515Z,46.20
2019-03-24T12:49:37.460Z,48.50
2019-03-24T12:52:08.906Z,46.70
2019-03-24T12:54:40.284Z,46.90
2019-03-24T12:57:11.560Z,46.70
2019-03-24T12:59:42.866Z,47.70
2019-03-24T13:02:14.234Z,48.20
2019-03-24T13:04:45.541Z,47.30
2019-03-24T13:07:16.946Z,45.60
2019-03-24T13:09:48.411Z,46.60
2019-03-24T13:12:19.959Z,47.30
2019-03-24T13:14:51.287Z,46.30
2019-03-24T13:17:22.628Z,48.00
2019-03-24T13:19:54.115Z,50.30
2019-03-24T13:22:25.932Z,50.30
2019-03-24T13:24:57.329Z,49.80
2019-03-24T13:27:28.689Z,49.60
2019-03-24T13:30:00.018Z,49.10
2019-03-24T13:32:31.619Z,50.10
2019-03-24T13:35:03.031Z,49.50
2019-03-24T13:37:34.323Z,52.40
2019-03-24T13:40:05.899Z,54.30
2019-03-24T13:42:37.215Z,54.40
2019-03-24T13:45:08.640Z,52.30
2019-03-24T13:47:39.965Z,49.60
2019-03-24T13:50:11.456Z,52.10
2019-03-24T13:52:42.753Z,90.10
2019-03-24T13:55:14.256Z,97.50
2019-03-24T13:57:45.530Z,80.50
2019-03-24T14:00:19.159Z,46.80
2019-03-24T14:02:50.773Z,42.30
2019-03-24T14:05:22.151Z,42.30
2019-03-24T14:07:53.446Z,43.40
2019-03-24T14:10:25.698Z,44.10
2019-03-24T14:12:57.103Z,42.20
2019-03-24T14:15:28.389Z,94.90
2019-03-24T14:17:59.853Z,43.70
2019-03-24T14:20:42.449Z,41.80
2019-03-24T14:23:04.339Z,43.70
2019-03-24T14:25:35.672Z,44.10
2019-03-24T14:28:07.060Z,44.00
2019-03-24T14:30:43.289Z,46.60
2019-03-24T14:33:15.440Z,47.50
2019-03-24T14:35:47.047Z,46.10
2019-03-24T14:38:18.312Z,47.00
2019-03-24T14:40:49.751Z,48.50
2019-03-24T14:43:21.398Z,49.10
2019-03-24T14:45:52.705Z,48.90
2019-03-24T14:48:23.993Z,97.30
2019-03-24T14:50:55.688Z,90.90
2019-03-24T14:53:26.990Z,81.40
2019-03-24T14:55:58.318Z,66.90
2019-03-24T14:58:29.622Z,59.60
2019-03-24T15:01:00.998Z,51.40
2019-03-24T15:03:33.690Z,52.10
2019-03-24T15:06:05.242Z,41.60
2019-03-24T15:08:36.522Z,50.80
2019-03-24T15:11:07.904Z,44.00
2019-03-24T15:13:39.188Z,50.90
2019-03-24T15:16:10.490Z,47.00
2019-03-24T15:18:41.783Z,46.30
2019-03-24T15:21:13.086Z,45.50
2019-03-24T15:23:44.402Z,44.50
2019-03-24T15:26:15.798Z,43.70
2019-03-24T15:28:47.326Z,43.40
2019-03-24T15:31:18.628Z,42.30
2019-03-24T15:33:49.920Z,44.20
2019-03-24T15:36:21.219Z,39.40
2019-03-24T15:38:52.572Z,43.90
2019-03-24T15:41:23.951Z,43.90
2019-03-24T15:43:55.385Z,44.00
2019-03-24T15:46:26.669Z,43.30
2019-03-24T15:48:57.963Z,44.30
2019-03-24T15:51:29.290Z,44.20
2019-03-24T15:54:00.651Z,46.20
2019-03-24T15:56:31.991Z,46.70
2019-03-24T15:59:03.391Z,38.00
2019-03-24T16:01:34.696Z,37.40
2019-03-24T16:04:06.141Z,40.10
2019-03-24T16:06:37.526Z,45.90
2019-03-24T16:09:09.678Z,45.40
2019-03-24T16:11:40.977Z,48.10
2019-03-24T16:14:13.312Z,51.40
2019-03-24T16:16:44.621Z,52.80
2019-03-24T16:19:15.941Z,53.90
2019-03-24T16:21:47.295Z,54.70
2019-03-24T16:24:18.587Z,57.30
2019-03-24T16:26:49.907Z,51.90
2019-03-24T16:29:21.556Z,50.90
2019-03-24T16:31:52.917Z,50.50
2019-03-24T16:34:24.259Z,49.70
2019-03-24T16:36:55.615Z,50.70
2019-03-24T16:39:26.922Z,52.10
2019-03-24T16:41:58.261Z,53.80
2019-03-24T16:44:29.669Z,56.10
2019-03-24T16:47:00.967Z,56.60
2019-03-24T16:49:32.310Z,58.10
2019-03-24T16:52:03.750Z,60.00
2019-03-24T16:54:35.033Z,62.80
2019-03-24T16:57:06.357Z,65.10
2019-03-24T16:59:37.750Z,66.80
2019-03-24T17:02:09.113Z,67.30
2019-03-24T17:04:40.510Z,69.40
2019-03-24T17:07:11.866Z,72.20
2019-03-24T17:09:43.169Z,73.50
2019-03-24T17:12:14.955Z,76.80
2019-03-24T17:14:46.373Z,76.30
2019-03-24T17:17:18.022Z,78.20
2019-03-24T17:19:49.435Z,78.70
2019-03-24T17:22:21.158Z,79.30
2019-03-24T17:24:52.779Z,80.30
2019-03-24T17:27:24.107Z,81.60
2019-03-24T17:29:55.412Z,81.60
2019-03-24T17:32:26.708Z,82.20
2019-03-24T17:35:03.880Z,84.20
2019-03-24T17:37:35.287Z,86.40
2019-03-24T17:40:07.328Z,86.30
2019-03-24T17:42:38.829Z,84.70
2019-03-24T17:45:11.199Z,85.60
2019-03-24T17:47:42.504Z,83.90
2019-03-24T17:50:14.479Z,82.10
2019-03-24T17:52:46.277Z,81.40
2019-03-24T17:55:27.160Z,80.30
2019-03-24T17:57:51.985Z,78.30
2019-03-24T18:00:38.112Z,78.70
2019-03-24T18:03:09.501Z,79.30
2019-03-24T18:05:40.969Z,78.70
2019-03-24T18:08:12.370Z,78.80
2019-03-24T18:10:44.862Z,80.50
2019-03-24T18:13:16.195Z,78.90
2019-03-24T18:15:47.468Z,79.70
2019-03-24T18:18:19.043Z,76.80
2019-03-24T18:20:50.370Z,78.10
2019-03-24T18:23:21.639Z,78.40
2019-03-24T18:25:53.102Z,77.90
2019-03-24T18:28:24.461Z,79.70
2019-03-24T18:30:55.973Z,79.20
2019-03-24T18:33:27.252Z,79.00
2019-03-24T18:35:58.546Z,80.60
2019-03-24T18:38:29.778Z,83.20
2019-03-24T18:41:01.786Z,84.20
2019-03-24T18:43:33.134Z,84.00
2019-03-24T18:46:04.518Z,85.60
2019-03-24T18:48:36.209Z,87.80
2019-03-24T18:51:07.473Z,89.10
2019-03-24T18:53:38.760Z,89.50
2019-03-24T18:56:10.427Z,90.50
2019-03-24T18:58:41.747Z,90.80
2019-03-24T19:01:13.353Z,91.10
2019-03-24T19:03:44.690Z,91.90
2019-03-24T19:06:15.963Z,91.80
2019-03-24T19:08:47.214Z,91.60
2019-03-24T19:11:18.488Z,91.90
2019-03-24T19:13:49.812Z,91.90
2019-03-24T19:16:21.070Z,92.00
2019-03-24T19:18:52.633Z,92.30
2019-03-24T19:21:23.917Z,92.60
2019-03-24T19:23:55.992Z,92.50
2019-03-24T19:26:27.539Z,92.70
2019-03-24T19:28:59.826Z,92.90
2019-03-24T19:31:31.132Z,92.90
2019-03-24T19:34:02.492Z,93.10
2019-03-24T19:36:34.583Z,92.90
2019-03-24T19:39:08.693Z,93.20
2019-03-24T19:41:40.031Z,93.10
2019-03-24T19:44:11.905Z,93.20
2019-03-24T19:46:43.188Z,93.50
2019-03-24T19:49:14.432Z,93.80
2019-03-24T19:51:45.713Z,93.90
2019-03-24T19:54:16.994Z,93.90
2019-03-24T19:56:48.253Z,94.10
2019-03-24T19:59:19.639Z,94.30
2019-03-24T20:01:51.963Z,94.50
2019-03-24T20:04:24.185Z,94.70
2019-03-24T20:06:55.470Z,94.80
2019-03-24T20:09:26.752Z,94.90
2019-03-24T20:11:58.012Z,95.00
2019-03-24T20:14:29.441Z,95.50
2019-03-24T20:17:00.703Z,95.60
2019-03-24T20:19:31.979Z,95.80
2019-03-24T20:22:03.253Z,95.80
2019-03-24T20:24:34.962Z,96.10
2019-03-24T20:27:06.234Z,96.10
2019-03-24T20:29:37.501Z,96.10
2019-03-24T20:32:08.853Z,96.30
2019-03-24T20:34:40.138Z,96.30
2019-03-24T20:37:11.428Z,96.70
2019-03-24T20:39:42.735Z,96.70
2019-03-24T20:42:14.022Z,97.00
2019-03-24T20:44:45.284Z,97.00
2019-03-24T20:47:16.552Z,97.30
2019-03-24T20:49:48.774Z,97.90
2019-03-24T20:52:20.983Z,97.60
2019-03-24T20:54:52.547Z,97.90
2019-03-24T20:57:23.873Z,98.20
2019-03-24T20:59:55.217Z,98.20
2019-03-24T21:02:26.502Z,98.30
2019-03-24T21:04:57.803Z,98.60
2019-03-24T21:07:29.088Z,98.50
2019-03-24T21:10:00.537Z,98.60
2019-03-24T21:12:31.904Z,98.60
2019-03-24T21:15:03.262Z,98.60
2019-03-24T21:17:35.564Z,98.60
2019-03-24T21:20:07.552Z,98.70
2019-03-24T21:22:38.976Z,98.60
2019-03-24T21:25:10.717Z,98.50
2019-03-24T21:27:42.081Z,98.50
2019-03-24T21:30:14.711Z,98.60
2019-03-24T21:32:46.147Z,98.60
2019-03-24T21:35:17.675Z,98.80
2019-03-24T21:37:48.929Z,98.90
2019-03-24T21:40:20.421Z,99.00
2019-03-24T21:42:51.722Z,99.00
2019-03-24T21:45:22.972Z,99.10
2019-03-24T21:47:54.572Z,99.30
2019-03-24T21:50:26.208Z,99.20
2019-03-24T21:52:57.769Z,99.30
2019-03-24T21:55:29.791Z,99.60
2019-03-24T21:58:04.745Z,99.70
2019-03-24T22:00:37.642Z,99.80
2019-03-24T22:03:09.161Z,99.90
2019-03-24T22:05:40.904Z,99.90
2019-03-24T22:08:12.202Z,99.90
2019-03-24T22:10:43.560Z,99.90
2019-03-24T22:13:15.082Z,99.90
2019-03-24T22:15:46.370Z,99.90
2019-03-24T22:18:17.630Z,99.90
2019-03-24T22:20:49.426Z,99.90
2019-03-24T22:23:21.193Z,99.90
2019-03-24T22:25:52.721Z,99.90
2019-03-24T22:28:24.358Z,99.90
2019-03-24T22:30:56.568Z,99.90
2019-03-24T22:33:29.059Z,99.90
2019-03-24T22:36:00.653Z,99.90
2019-03-24T22:38:31.995Z,99.90
2019-03-24T22:41:03.298Z,99.90
2019-03-24T22:43:34.558Z,99.90
2019-03-24T22:46:06.308Z,99.90
2019-03-24T22:48:37.547Z,99.90
2019-03-24T22:51:08.802Z,99.90
2019-03-24T22:53:40.209Z,99.90
2019-03-24T22:56:11.516Z,99.90
2019-03-24T22:58:42.807Z,99.90
2019-03-24T23:01:15.761Z,99.90
2019-03-24T23:03:47.475Z,99.90
2019-03-24T23:06:18.770Z,99.90
2019-03-24T23:08:50.112Z,99.90
2019-03-24T23:11:21.466Z,99.90
2019-03-24T23:13:52.706Z,99.90
2019-03-24T23:16:24.968Z,99.90
2019-03-24T23:18:56.224Z,99.90
2019-03-24T23:21:27.502Z,99.90
2019-03-24T23:23:59.076Z,99.90
2019-03-24T23:26:30.395Z,99.90
2019-03-24T23:29:01.684Z,99.90
2019-03-24T23:31:34.216Z,99.90
2019-03-24T23:34:06.163Z,99.90
2019-03-24T23:36:37.850Z,99.90
2019-03-24T23:39:09.577Z,99.90
2019-03-24T23:41:41.115Z,99.90
2019-03-24T23:44:12.415Z,99.90
2019-03-24T23:46:43.797Z,99.90
2019-03-24T23:49:15.046Z,99.90
2019-03-24T23:51:46.746Z,99.90
2019-03-24T23:54:26.570Z,99.90
2019-03-24T23:56:50.974Z,99.90
2019-03-24T23:59:22.255Z,99.90
